createdAt,value
2023-05-13T00:00:00.000Z,22.48
2023-05-13T00:15:00.000Z,23.25
2023-05-13T00:30:00.000Z,25.42
2023-05-13T00:45:00.000Z,26.11
2023-05-13T01:00:00.000Z,24
2023-05-13T01:15:00.000Z,22.41
2023-05-13T01:30:00.000Z,22.95
2023-05-13T01:45:00.000Z,22.24
2023-05-13T02:00:00.000Z,20.67
2023-05-13T02:15:00.000Z,19.82
2023-05-13T02:30:00.000Z,19.48
2023-05-13T02:45:00.000Z,19.91
2023-05-13T03:00:00.000Z,20.22
2023-05-13T03:15:00.000Z,19.52
2023-05-13T03:30:00.000Z,17.54
2023-05-13T03:45:00.000Z,15.75
2023-05-13T04:00:00.000Z,15.82
2023-05-13T04:15:00.000Z,16.74
2023-05-13T04:30:00.000Z,16.58
2023-05-13T04:45:00.000Z,15.79
2023-05-13T05:00:00.000Z,15.44
2023-05-13T05:15:00.000Z,14.34
2023-05-13T05:30:00.000Z,12.85
2023-05-13T05:45:00.000Z,13.69
2023-05-13T06:00:00.000Z,11.66
2023-05-13T06:15:00.000Z,10.64
2023-05-13T06:30:00.000Z,10.55
2023-05-13T06:45:00.000Z,8.92
2023-05-13T07:00:00.000Z,10.27
2023-05-13T07:15:00.000Z,10.66
2023-05-13T07:30:00.000Z,9.54
2023-05-13T07:45:00.000Z,9.71
2023-05-13T08:00:00.000Z,9.76
2023-05-13T08:15:00.000Z,9.16
2023-05-13T08:30:00.000Z,9.34
2023-05-13T08:45:00.000Z,8.96
2023-05-13T09:00:00.000Z,8.58
2023-05-13T09:15:00.000Z,9.8
2023-05-13T09:30:00.000Z,10.51
2023-05-13T09:45:00.000Z,12.33
2023-05-13T10:00:00.000Z,12.85
2023-05-13T10:15:00.000Z,11
2023-05-13T10:30:00.000Z,13.62
2023-05-13T10:45:00.000Z,13.45
2023-05-13T11:00:00.000Z,12.51
2023-05-13T11:15:00.000Z,10.4
2023-05-13T11:30:00.000Z,7.58
2023-05-13T11:45:00.000Z,7.32
2023-05-13T12:00:00.000Z,7.12
2023-05-13T12:15:00.000Z,7.51
2023-05-13T12:30:00.000Z,7.49
2023-05-13T12:45:00.000Z,7.4
2023-05-13T13:00:00.000Z,6.24
2023-05-13T13:15:00.000Z,6.68
2023-05-13T13:30:00.000Z,7.41
2023-05-13T13:45:00.000Z,7.28
2023-05-13T14:00:00.000Z,7.47
2023-05-13T14:15:00.000Z,6.54
2023-05-13T14:30:00.000Z,7.34
2023-05-13T14:45:00.000Z,7.11
2023-05-13T15:00:00.000Z,10.55
2023-05-13T15:15:00.000Z,16.31
2023-05-13T15:30:00.000Z,11.31
2023-05-13T15:45:00.000Z,10.18
2023-05-13T16:00:00.000Z,17.33
2023-05-13T16:15:00.000Z,17.58
2023-05-13T16:30:00.000Z,16.85
2023-05-13T16:45:00.000Z,20.65
2023-05-13T17:00:00.000Z,26.65
2023-05-13T17:15:00.000Z,31.6
2023-05-13T17:30:00.000Z,28.48
2023-05-13T17:45:00.000Z,25.04
2023-05-13T18:00:00.000Z,11.45
2023-05-13T18:15:00.000Z,12.26
2023-05-13T18:30:00.000Z,12.34
2023-05-13T18:45:00.000Z,14.02
2023-05-13T19:00:00.000Z,27.11
2023-05-13T19:15:00.000Z,31.26
2023-05-13T19:30:00.000Z,25.8
2023-05-13T19:45:00.000Z,29.85
2023-05-13T20:00:00.000Z,32.19
2023-05-13T20:15:00.000Z,33.33
2023-05-13T20:30:00.000Z,31.72
2023-05-13T20:45:00.000Z,33.56
2023-05-13T21:00:00.000Z,41.55
2023-05-13T21:15:00.000Z,44.35
2023-05-13T21:30:00.000Z,44.49
2023-05-13T21:45:00.000Z,44.21
2023-05-13T22:00:00.000Z,45.28
2023-05-13T22:15:00.000Z,45
2023-05-13T22:30:00.000Z,43.75
2023-05-13T22:45:00.000Z,44.13
2023-05-13T23:00:00.000Z,44.78
2023-05-13T23:15:00.000Z,43.79
2023-05-13T23:30:00.000Z,37.61
2023-05-13T23:45:00.000Z,21.08
